F/V Mare Liberum — FVHW — position and weather

sailwx.info

Track history (hours):
 
Tides and Currents Weather Stations Pressure Air Temp Water Temp Dewpoint Dewpoint Depression Visibility Wind Speed Wind Dir Waves Ship Positions

F/V Mare Liberum

Last reported at 2016-Aug-27 07:26 UTC. Time now 2016-Aug-27 08:10 UTC.
Position N 46°18' W 003°25'.

Length 21 m.

Type: Fishing. MMSI: 227426000.

Date/timePositionNaut miles runAvg speedWind from/ knotsBaromVisibWave heightAir tempDewpointWater temp
2016-Aug-27 07:26N 46°18' W 003°25'0 0.2
2016-Aug-27 06:32N 46°18' W 003°25'0 0.0
2016-Aug-27 04:33N 46°18' W 003°25'0 0.2
2016-Aug-27 03:20N 46°18' W 003°25'0 0.0
2016-Aug-25 22:27N 46°18' W 003°25'0 0.0
2016-Aug-25 21:29N 46°18' W 003°25'0 0.0
2016-Aug-25 20:33N 46°18' W 003°25'0 0.1
2016-Aug-25 19:33N 46°18' W 003°25'0 0.1
2016-Aug-25 18:30N 46°18' W 003°25'0 0.1
2016-Aug-25 16:33N 46°18' W 003°25'18 1.1
2016-Aug-24 23:18N 46°32' W 003°07'8 9.2
2016-Aug-24 22:29N 46°37' W 002°59'18 9.2
2016-Aug-24 20:31N 46°49' W 002°39'9 8.9
2016-Aug-24 19:29N 46°55' W 002°29'9 9.3
2016-Aug-24 18:32N 47°01' W 002°20'2 1.6
2016-Aug-24 17:33N 47°01' W 002°18'0 0.0
2016-Aug-24 16:33N 47°01' W 002°18'0 0.0
2016-Aug-24 15:33N 47°01' W 002°18'0 0.0
2016-Aug-24 14:33N 47°01' W 002°18'0 0.0
2016-Aug-24 13:32N 47°01' W 002°18'0 0.0
2016-Aug-24 12:33N 47°01' W 002°18'0 0.0
2016-Aug-24 11:33N 47°01' W 002°18'0 0.0
2016-Aug-24 10:33N 47°01' W 002°18'0 0.0
2016-Aug-24 09:33N 47°01' W 002°18'0 0.0
2016-Aug-24 08:33N 47°01' W 002°18'0 0.0
2016-Aug-24 07:33N 47°01' W 002°18'0 0.0
2016-Aug-24 06:33N 47°01' W 002°18'0 0.0
2016-Aug-24 04:33N 47°01' W 002°18'0 0.0
2016-Aug-24 03:33N 47°01' W 002°18'0 0.0
2016-Aug-24 02:33N 47°01' W 002°18'0 0.0
2016-Aug-24 01:33N 47°01' W 002°18'0 0.0
2016-Aug-24 00:33N 47°01' W 002°18'0 0.0
2016-Aug-23 23:33N 47°01' W 002°18'0 0.0
2016-Aug-23 22:33N 47°01' W 002°18'0 0.0
2016-Aug-23 21:33N 47°01' W 002°18'0 0.0
2016-Aug-23 20:33N 47°01' W 002°18'0 0.0
2016-Aug-23 19:33N 47°01' W 002°18'0 0.0
2016-Aug-23 18:33N 47°01' W 002°18'0 0.0
2016-Aug-23 17:28N 47°01' W 002°18'0 0.0
2016-Aug-23 16:33N 47°01' W 002°18'0 0.0
2016-Aug-23 15:33N 47°01' W 002°18'0 0.0
2016-Aug-23 14:29N 47°01' W 002°18'0 0.0
2016-Aug-23 12:31N 47°01' W 002°18'0 0.0
2016-Aug-23 11:33N 47°01' W 002°18'0 0.0
2016-Aug-23 10:33N 47°01' W 002°18'0 0.0
2016-Aug-23 09:33N 47°01' W 002°18'0 0.0
2016-Aug-23 08:33N 47°01' W 002°18'0 0.0
2016-Aug-23 07:33N 47°01' W 002°18'0 0.0
2016-Aug-23 06:33N 47°01' W 002°18'0 0.0
2016-Aug-23 05:33N 47°01' W 002°18'0 0.0
2016-Aug-23 04:33N 47°01' W 002°18'0 0.0
2016-Aug-23 03:33N 47°01' W 002°18'0 0.0
2016-Aug-23 02:33N 47°01' W 002°18'0 0.0
2016-Aug-23 01:33N 47°01' W 002°18'0 0.0
2016-Aug-23 00:33N 47°01' W 002°18'0 0.0
2016-Aug-22 23:33N 47°01' W 002°18'0 0.0
2016-Aug-22 22:33N 47°01' W 002°18'0 0.0
2016-Aug-22 21:33N 47°01' W 002°18'0 0.0
2016-Aug-22 20:33N 47°01' W 002°18'0 0.0
2016-Aug-22 19:34N 47°01' W 002°18'0 0.0
2016-Aug-22 18:30N 47°01' W 002°18'0 0.0
2016-Aug-22 17:33N 47°01' W 002°18'0 0.0
2016-Aug-22 16:33N 47°01' W 002°18'0 0.0
2016-Aug-22 15:33N 47°01' W 002°18'0 0.0
2016-Aug-22 14:25N 47°01' W 002°18'0 0.0
2016-Aug-22 13:23N 47°01' W 002°18'0 0.0
2016-Aug-22 12:33N 47°01' W 002°18'0 0.0
2016-Aug-22 11:33N 47°01' W 002°18'0 0.0
2016-Aug-22 10:33N 47°01' W 002°18'0 0.0
2016-Aug-22 09:33N 47°01' W 002°18'0 0.0
2016-Aug-22 08:33N 47°01' W 002°18'0 0.0
2016-Aug-22 07:33N 47°01' W 002°18'0 0.0
2016-Aug-22 06:34N 47°01' W 002°18'0 0.0
2016-Aug-22 05:34N 47°01' W 002°18'0 0.0
2016-Aug-22 04:33N 47°01' W 002°18'0 0.0
2016-Aug-22 03:33N 47°01' W 002°18'0 0.0
2016-Aug-22 02:33N 47°01' W 002°18'0 0.0
2016-Aug-22 01:33N 47°01' W 002°18'0 0.0
2016-Aug-22 00:31N 47°01' W 002°18'0 0.0
2016-Aug-21 23:33N 47°01' W 002°18'0 0.0
2016-Aug-21 22:30N 47°01' W 002°18'0 0.0
2016-Aug-21 21:34N 47°01' W 002°18'0 0.0
2016-Aug-21 20:34N 47°01' W 002°18'0 0.0
2016-Aug-21 19:34N 47°01' W 002°18'0 0.0
2016-Aug-21 18:34N 47°01' W 002°18'0 0.0
2016-Aug-21 17:33N 47°01' W 002°18'0 0.0
2016-Aug-21 16:32N 47°01' W 002°18'0 0.0
2016-Aug-21 15:33N 47°01' W 002°18'0 0.0
2016-Aug-21 14:33N 47°01' W 002°18'0 0.0
2016-Aug-21 13:31N 47°01' W 002°18'0 0.0
2016-Aug-21 12:30N 47°01' W 002°18'0 0.0
2016-Aug-21 11:34N 47°01' W 002°18'0 0.0
2016-Aug-21 10:33N 47°01' W 002°18'0 0.0
2016-Aug-21 09:33N 47°01' W 002°18'0 0.0
2016-Aug-21 08:33N 47°01' W 002°18'0 0.0
2016-Aug-21 07:33N 47°01' W 002°18'0 0.0
2016-Aug-21 06:33N 47°01' W 002°18'0 0.0
2016-Aug-21 05:33N 47°01' W 002°18'0 0.0
2016-Aug-21 04:33N 47°01' W 002°18'0 0.0
2016-Aug-21 03:33N 47°01' W 002°18'0 0.0
2016-Aug-21 02:33N 47°01' W 002°18'0 0.0
2016-Aug-21 01:34N 47°01' W 002°18'0 0.0
2016-Aug-21 00:33N 47°01' W 002°18'0 0.0
2016-Aug-20 23:34N 47°01' W 002°18'0 0.0
2016-Aug-20 22:33N 47°01' W 002°18'0 0.0
2016-Aug-20 21:34N 47°01' W 002°18'0 0.0
2016-Aug-20 20:33N 47°01' W 002°18'0 0.0
2016-Aug-20 19:33N 47°01' W 002°18'0 0.0
2016-Aug-20 18:33N 47°01' W 002°18'0 0.0
2016-Aug-20 17:33N 47°01' W 002°18'0 0.0
2016-Aug-20 16:33N 47°01' W 002°18'0 0.0
2016-Aug-20 15:33N 47°01' W 002°18'0 0.0
2016-Aug-20 14:33N 47°01' W 002°18'0 0.0
2016-Aug-20 13:34N 47°01' W 002°18'0 0.0
2016-Aug-20 12:33N 47°01' W 002°18'0 0.0
2016-Aug-20 11:33N 47°01' W 002°18'0 0.0
2016-Aug-20 10:33N 47°01' W 002°18'0 0.0
2016-Aug-20 09:33N 47°01' W 002°18'0 0.0
2016-Aug-20 08:33N 47°01' W 002°18'0 0.0
2016-Aug-20 07:34N 47°01' W 002°18'0 0.0
2016-Aug-20 06:33N 47°01' W 002°18'0 0.0
2016-Aug-20 05:33N 47°01' W 002°18'0 0.0
2016-Aug-20 04:33N 47°01' W 002°18'0 0.0
2016-Aug-20 03:33N 47°01' W 002°18'0 0.0
2016-Aug-20 02:33N 47°01' W 002°18'0 0.0
2016-Aug-20 01:33N 47°01' W 002°18'0 0.0
2016-Aug-20 00:33N 47°01' W 002°18'0 0.0
2016-Aug-19 23:33N 47°01' W 002°18'0 0.0
2016-Aug-19 22:33N 47°01' W 002°18'0 0.0
2016-Aug-19 21:33N 47°01' W 002°18'0 0.0
2016-Aug-19 20:33N 47°01' W 002°18'0 0.0
2016-Aug-19 19:33N 47°01' W 002°18'0 0.0
2016-Aug-19 18:33N 47°01' W 002°18'0 0.0
2016-Aug-19 17:33N 47°01' W 002°18'0 0.0
2016-Aug-19 16:33N 47°01' W 002°18'0 0.0
2016-Aug-19 15:33N 47°01' W 002°18'0 0.0
2016-Aug-19 14:33N 47°01' W 002°18'0 0.0
2016-Aug-19 13:33N 47°01' W 002°18'0 0.0
2016-Aug-19 12:33N 47°01' W 002°18'0 0.0
2016-Aug-19 11:33N 47°01' W 002°18'0 0.0
2016-Aug-19 10:33N 47°01' W 002°18'0 0.0
2016-Aug-19 09:34N 47°01' W 002°18'0 0.0
2016-Aug-19 08:33N 47°01' W 002°18'0 0.0
2016-Aug-19 07:33N 47°01' W 002°18'0 0.0
2016-Aug-19 06:33N 47°01' W 002°18'0 0.0
2016-Aug-19 05:33N 47°01' W 002°18'0 0.0
2016-Aug-19 04:33N 47°01' W 002°18'0 0.0
2016-Aug-19 03:33N 47°01' W 002°18'0 0.0
2016-Aug-19 02:33N 47°01' W 002°18'0 0.0
2016-Aug-19 01:33N 47°01' W 002°18'0 0.0
2016-Aug-19 00:33N 47°01' W 002°18'0 0.0
2016-Aug-18 23:33N 47°01' W 002°18'0 0.0
2016-Aug-18 22:33N 47°01' W 002°18'0 0.0
2016-Aug-18 21:33N 47°01' W 002°18'0 0.0
2016-Aug-18 20:33N 47°01' W 002°18'0 0.0
2016-Aug-18 19:33N 47°01' W 002°18'0 0.0
2016-Aug-18 18:33N 47°01' W 002°18'0 0.0
2016-Aug-18 17:33N 47°01' W 002°18'0 0.0
2016-Aug-18 16:33N 47°01' W 002°18'0 0.0
2016-Aug-18 15:28N 47°01' W 002°18'0 0.0
2016-Aug-18 14:33N 47°01' W 002°18'0 0.0
2016-Aug-18 13:31N 47°01' W 002°18'0 0.0
2016-Aug-18 12:28N 47°01' W 002°18'0 0.0
2016-Aug-18 11:33N 47°01' W 002°18'0 0.0
2016-Aug-18 10:33N 47°01' W 002°18'0 0.0
2016-Aug-18 08:29N 47°01' W 002°18'0 0.0
2016-Aug-18 07:34N 47°01' W 002°18'0 0.0
2016-Aug-18 06:33N 47°01' W 002°18'0 0.0
2016-Aug-18 05:33N 47°01' W 002°18'2 1.6
2016-Aug-18 04:33N 47°01' W 002°20'  
Track history (hours):
 
Tides and Currents Weather Stations Pressure Air Temp Water Temp Dewpoint Dewpoint Depression Visibility Wind Speed Wind Dir Waves Ship Positions

F/V Mare Liberum

Last reported at 2016-Aug-27 07:26 UTC. Time now 2016-Aug-27 08:10 UTC.
Position N 46°18' W 003°25'.

Length 21 m.

Type: Fishing. MMSI: 227426000.

Date/timePositionNaut miles runAvg speedWind from/ knotsBaromVisibWave heightAir tempDewpointWater temp
2016-Aug-27 07:26N 46°18' W 003°25'0 0.2
2016-Aug-27 06:32N 46°18' W 003°25'0 0.0
2016-Aug-27 04:33N 46°18' W 003°25'0 0.2
2016-Aug-27 03:20N 46°18' W 003°25'0 0.0
2016-Aug-25 22:27N 46°18' W 003°25'0 0.0
2016-Aug-25 21:29N 46°18' W 003°25'0 0.0
2016-Aug-25 20:33N 46°18' W 003°25'0 0.1
2016-Aug-25 19:33N 46°18' W 003°25'0 0.1
2016-Aug-25 18:30N 46°18' W 003°25'0 0.1
2016-Aug-25 16:33N 46°18' W 003°25'18 1.1
2016-Aug-24 23:18N 46°32' W 003°07'8 9.2
2016-Aug-24 22:29N 46°37' W 002°59'18 9.2
2016-Aug-24 20:31N 46°49' W 002°39'9 8.9
2016-Aug-24 19:29N 46°55' W 002°29'9 9.3
2016-Aug-24 18:32N 47°01' W 002°20'2 1.6
2016-Aug-24 17:33N 47°01' W 002°18'0 0.0
2016-Aug-24 16:33N 47°01' W 002°18'0 0.0
2016-Aug-24 15:33N 47°01' W 002°18'0 0.0
2016-Aug-24 14:33N 47°01' W 002°18'0 0.0
2016-Aug-24 13:32N 47°01' W 002°18'0 0.0
2016-Aug-24 12:33N 47°01' W 002°18'0 0.0
2016-Aug-24 11:33N 47°01' W 002°18'0 0.0
2016-Aug-24 10:33N 47°01' W 002°18'0 0.0
2016-Aug-24 09:33N 47°01' W 002°18'0 0.0
2016-Aug-24 08:33N 47°01' W 002°18'0 0.0
2016-Aug-24 07:33N 47°01' W 002°18'0 0.0
2016-Aug-24 06:33N 47°01' W 002°18'0 0.0
2016-Aug-24 04:33N 47°01' W 002°18'0 0.0
2016-Aug-24 03:33N 47°01' W 002°18'0 0.0
2016-Aug-24 02:33N 47°01' W 002°18'0 0.0
2016-Aug-24 01:33N 47°01' W 002°18'0 0.0
2016-Aug-24 00:33N 47°01' W 002°18'0 0.0
2016-Aug-23 23:33N 47°01' W 002°18'0 0.0
2016-Aug-23 22:33N 47°01' W 002°18'0 0.0
2016-Aug-23 21:33N 47°01' W 002°18'0 0.0
2016-Aug-23 20:33N 47°01' W 002°18'0 0.0
2016-Aug-23 19:33N 47°01' W 002°18'0 0.0
2016-Aug-23 18:33N 47°01' W 002°18'0 0.0
2016-Aug-23 17:28N 47°01' W 002°18'0 0.0
2016-Aug-23 16:33N 47°01' W 002°18'0 0.0
2016-Aug-23 15:33N 47°01' W 002°18'0 0.0
2016-Aug-23 14:29N 47°01' W 002°18'0 0.0
2016-Aug-23 12:31N 47°01' W 002°18'0 0.0
2016-Aug-23 11:33N 47°01' W 002°18'0 0.0
2016-Aug-23 10:33N 47°01' W 002°18'0 0.0
2016-Aug-23 09:33N 47°01' W 002°18'0 0.0
2016-Aug-23 08:33N 47°01' W 002°18'0 0.0
2016-Aug-23 07:33N 47°01' W 002°18'0 0.0
2016-Aug-23 06:33N 47°01' W 002°18'0 0.0
2016-Aug-23 05:33N 47°01' W 002°18'0 0.0
2016-Aug-23 04:33N 47°01' W 002°18'0 0.0
2016-Aug-23 03:33N 47°01' W 002°18'0 0.0
2016-Aug-23 02:33N 47°01' W 002°18'0 0.0
2016-Aug-23 01:33N 47°01' W 002°18'0 0.0
2016-Aug-23 00:33N 47°01' W 002°18'0 0.0
2016-Aug-22 23:33N 47°01' W 002°18'0 0.0
2016-Aug-22 22:33N 47°01' W 002°18'0 0.0
2016-Aug-22 21:33N 47°01' W 002°18'0 0.0
2016-Aug-22 20:33N 47°01' W 002°18'0 0.0
2016-Aug-22 19:34N 47°01' W 002°18'0 0.0
2016-Aug-22 18:30N 47°01' W 002°18'0 0.0
2016-Aug-22 17:33N 47°01' W 002°18'0 0.0
2016-Aug-22 16:33N 47°01' W 002°18'0 0.0
2016-Aug-22 15:33N 47°01' W 002°18'0 0.0
2016-Aug-22 14:25N 47°01' W 002°18'0 0.0
2016-Aug-22 13:23N 47°01' W 002°18'0 0.0
2016-Aug-22 12:33N 47°01' W 002°18'0 0.0
2016-Aug-22 11:33N 47°01' W 002°18'0 0.0
2016-Aug-22 10:33N 47°01' W 002°18'0 0.0
2016-Aug-22 09:33N 47°01' W 002°18'0 0.0
2016-Aug-22 08:33N 47°01' W 002°18'0 0.0
2016-Aug-22 07:33N 47°01' W 002°18'0 0.0
2016-Aug-22 06:34N 47°01' W 002°18'0 0.0
2016-Aug-22 05:34N 47°01' W 002°18'0 0.0
2016-Aug-22 04:33N 47°01' W 002°18'0 0.0
2016-Aug-22 03:33N 47°01' W 002°18'0 0.0
2016-Aug-22 02:33N 47°01' W 002°18'0 0.0
2016-Aug-22 01:33N 47°01' W 002°18'0 0.0
2016-Aug-22 00:31N 47°01' W 002°18'0 0.0
2016-Aug-21 23:33N 47°01' W 002°18'0 0.0
2016-Aug-21 22:30N 47°01' W 002°18'0 0.0
2016-Aug-21 21:34N 47°01' W 002°18'0 0.0
2016-Aug-21 20:34N 47°01' W 002°18'0 0.0
2016-Aug-21 19:34N 47°01' W 002°18'0 0.0
2016-Aug-21 18:34N 47°01' W 002°18'0 0.0
2016-Aug-21 17:33N 47°01' W 002°18'0 0.0
2016-Aug-21 16:32N 47°01' W 002°18'0 0.0
2016-Aug-21 15:33N 47°01' W 002°18'0 0.0
2016-Aug-21 14:33N 47°01' W 002°18'0 0.0
2016-Aug-21 13:31N 47°01' W 002°18'0 0.0
2016-Aug-21 12:30N 47°01' W 002°18'0 0.0
2016-Aug-21 11:34N 47°01' W 002°18'0 0.0
2016-Aug-21 10:33N 47°01' W 002°18'0 0.0
2016-Aug-21 09:33N 47°01' W 002°18'0 0.0
2016-Aug-21 08:33N 47°01' W 002°18'0 0.0
2016-Aug-21 07:33N 47°01' W 002°18'0 0.0
2016-Aug-21 06:33N 47°01' W 002°18'0 0.0
2016-Aug-21 05:33N 47°01' W 002°18'0 0.0
2016-Aug-21 04:33N 47°01' W 002°18'0 0.0
2016-Aug-21 03:33N 47°01' W 002°18'0 0.0
2016-Aug-21 02:33N 47°01' W 002°18'0 0.0
2016-Aug-21 01:34N 47°01' W 002°18'0 0.0
2016-Aug-21 00:33N 47°01' W 002°18'0 0.0
2016-Aug-20 23:34N 47°01' W 002°18'0 0.0
2016-Aug-20 22:33N 47°01' W 002°18'0 0.0
2016-Aug-20 21:34N 47°01' W 002°18'0 0.0
2016-Aug-20 20:33N 47°01' W 002°18'0 0.0
2016-Aug-20 19:33N 47°01' W 002°18'0 0.0
2016-Aug-20 18:33N 47°01' W 002°18'0 0.0
2016-Aug-20 17:33N 47°01' W 002°18'0 0.0
2016-Aug-20 16:33N 47°01' W 002°18'0 0.0
2016-Aug-20 15:33N 47°01' W 002°18'0 0.0
2016-Aug-20 14:33N 47°01' W 002°18'0 0.0
2016-Aug-20 13:34N 47°01' W 002°18'0 0.0
2016-Aug-20 12:33N 47°01' W 002°18'0 0.0
2016-Aug-20 11:33N 47°01' W 002°18'0 0.0
2016-Aug-20 10:33N 47°01' W 002°18'0 0.0
2016-Aug-20 09:33N 47°01' W 002°18'0 0.0
2016-Aug-20 08:33N 47°01' W 002°18'0 0.0
2016-Aug-20 07:34N 47°01' W 002°18'0 0.0
2016-Aug-20 06:33N 47°01' W 002°18'0 0.0
2016-Aug-20 05:33N 47°01' W 002°18'0 0.0
2016-Aug-20 04:33N 47°01' W 002°18'0 0.0
2016-Aug-20 03:33N 47°01' W 002°18'0 0.0
2016-Aug-20 02:33N 47°01' W 002°18'0 0.0
2016-Aug-20 01:33N 47°01' W 002°18'0 0.0
2016-Aug-20 00:33N 47°01' W 002°18'0 0.0
2016-Aug-19 23:33N 47°01' W 002°18'0 0.0
2016-Aug-19 22:33N 47°01' W 002°18'0 0.0
2016-Aug-19 21:33N 47°01' W 002°18'0 0.0
2016-Aug-19 20:33N 47°01' W 002°18'0 0.0
2016-Aug-19 19:33N 47°01' W 002°18'0 0.0
2016-Aug-19 18:33N 47°01' W 002°18'0 0.0
2016-Aug-19 17:33N 47°01' W 002°18'0 0.0
2016-Aug-19 16:33N 47°01' W 002°18'0 0.0
2016-Aug-19 15:33N 47°01' W 002°18'0 0.0
2016-Aug-19 14:33N 47°01' W 002°18'0 0.0
2016-Aug-19 13:33N 47°01' W 002°18'0 0.0
2016-Aug-19 12:33N 47°01' W 002°18'0 0.0
2016-Aug-19 11:33N 47°01' W 002°18'0 0.0
2016-Aug-19 10:33N 47°01' W 002°18'0 0.0
2016-Aug-19 09:34N 47°01' W 002°18'0 0.0
2016-Aug-19 08:33N 47°01' W 002°18'0 0.0
2016-Aug-19 07:33N 47°01' W 002°18'0 0.0
2016-Aug-19 06:33N 47°01' W 002°18'0 0.0
2016-Aug-19 05:33N 47°01' W 002°18'0 0.0
2016-Aug-19 04:33N 47°01' W 002°18'0 0.0
2016-Aug-19 03:33N 47°01' W 002°18'0 0.0
2016-Aug-19 02:33N 47°01' W 002°18'0 0.0
2016-Aug-19 01:33N 47°01' W 002°18'0 0.0
2016-Aug-19 00:33N 47°01' W 002°18'0 0.0
2016-Aug-18 23:33N 47°01' W 002°18'0 0.0
2016-Aug-18 22:33N 47°01' W 002°18'0 0.0
2016-Aug-18 21:33N 47°01' W 002°18'0 0.0
2016-Aug-18 20:33N 47°01' W 002°18'0 0.0
2016-Aug-18 19:33N 47°01' W 002°18'0 0.0
2016-Aug-18 18:33N 47°01' W 002°18'0 0.0
2016-Aug-18 17:33N 47°01' W 002°18'0 0.0
2016-Aug-18 16:33N 47°01' W 002°18'0 0.0
2016-Aug-18 15:28N 47°01' W 002°18'0 0.0
2016-Aug-18 14:33N 47°01' W 002°18'0 0.0
2016-Aug-18 13:31N 47°01' W 002°18'0 0.0
2016-Aug-18 12:28N 47°01' W 002°18'0 0.0
2016-Aug-18 11:33N 47°01' W 002°18'0 0.0
2016-Aug-18 10:33N 47°01' W 002°18'0 0.0
2016-Aug-18 08:29N 47°01' W 002°18'0 0.0
2016-Aug-18 07:34N 47°01' W 002°18'0 0.0
2016-Aug-18 06:33N 47°01' W 002°18'0 0.0
2016-Aug-18 05:33N 47°01' W 002°18'2 1.6
2016-Aug-18 04:33N 47°01' W 002°20'  

Dump ship's entire track history